Главная страница
METAR-TAF:

METAR-TAF

Аэропорты :

Al Jawf, Саудовская Аравия

широта: 29-47N, долгота: 040-06E, высота над уровнем моря: 689 м

Текущие метеонаблюдения

Эта сводка был подготовлена 4 часа и 5 минут назад, в 00:00 UTC
Ветер 8 Узел от юго-юго-восточный
Температура 8°C
Влажность 76%
Давление 1022 hPa
Видимость: 8000 м

METAR: OESK 280000Z 16008KT 8000 NSC 08/04 Q1022 NOSIG

Время: 07:05 (04:05 UTC)

Прогноз

Эта сводка был подготовлена 5 часа и 5 минут назад, в 23:00 UTC
Прогноз действительный с 28-го 00 UTC до 29-го 06 UTC
Ветер 3 Узел переменных направлений
Видимость: 7000 м
Вероятность 30% :
временами
С 28-го 00 UTC до 28-го 06 UTC
Видимость: 3500 м
дымка
изменения
С 28-го 06 UTC до 28-го 08 UTC
Ветер 10 Узел от южный-юго-западный
изменения
С 29-го 00 UTC до 29-го 02 UTC
Ветер 10 Узел от западный

TAF: OESK 272300Z 2800/2906 VRB03KT 7000 NSC PROB30 TEMPO 2800/2806 3500 BR BECMG 2806/2808 20010KT BECMG 2900/2902 26010KT

Метеонаблюдения и прогнозы для более 4000 аэропортов (сводки METAR и TAF).

Имеющиеся станции представлены на карте желтыми и красными точками.

Чтобы увидеть название станции, наведите на нее мышь.

Затем щелкните, чтобы увидеть метеонаблюдения и метеопрогнозы.

Управление картой: чтобы увеличить масштаб, щелкните зеленые кнопки с черным крестиком; чтобы уменьшить масштаб, щелкните зеленую кнопку с тире; для просмотра соседних карт щелкайте зеленые стрелки.


METAR-TAF: